Pagrindinis puslapis
METAR-TAF:

METAR-TAF

Oro uostai :

Vanas, Turkija

platuma: 38-27N, ilguma: 043-19E, Aukštis: 1667 m

Dabartinis oras

Ataskaita buvo paskelbta 43 minutes, ne 02:50 UTC
Vėjas 14 kt iš Pietų
Temperatūra 11°C
Drėgmė 47%
Slėgis 1011 hPa
Matomumas 10 km arba daugiau
Išsisklaidę debesys ne aukštis 3000 ft

METAR: LTCI 010250Z 18014KT 9999 SCT030 11/M00 Q1011 NOSIG

Laikas: 06:33 (03:33 UTC)

Prognozė

Ataskaita buvo paskelbta 1 valandą ir 53 minutes, ne 01:40 UTC
Prognozė galioja nuo 01 metu 03 UTC su 01 metu 12 UTC
Vėjas 15 kt iš Pietų su gūsio iki 25 kt
Matomumas 10 km arba daugiau
Išsisklaidę debesys ne aukštis 3000 ft

TAF: LTCI 010140Z 0103/0112 18015G25KT 9999 SCT030

Orai ataskaitas ir orų prognozės (METAR, TAF).

turimą stotys yra geltonos ir raudonos taškus žemėlapyje.

Perkelti pele per norėdami pamatyti stoties vardą.

Tada spustelėkite, norėdami matyti oro stebėjimo ir prognozės.

Norėdami pakeisti žemėlapį: spustelėkite ant žalios mygtukų su juodo kryžiaus žemyn,; žalią mygtuką su brūkšneliu, jei norite nutolinti; arba žalių rodyklių gretimoms žemėlapius.


METAR-TAF: